Time;durP1;ratioP1;P1;durP2;ratioP2;P2;SDS_P1;SDS_P2;PMS_P1;PMS_P2;Temp;Humidity;BMP_temperature;BMP_pressure;BME280_temperature;BME280_humidity;BME280_pressure;Samples;Min_cycle;Max_cycle;Signal;HPM_P1;HPM_P2
2022/10/06 00:06:50;;;;;;;5.63;4.15;;;;;;;22.58;57.70;101395.56;20629165;28;20042;-79
2022/10/06 00:16:50;;;;;;;6.15;4.47;;;;;;;22.58;57.63;101393.75;20633199;28;20045;-77
2022/10/06 00:26:51;;;;;;;7.75;4.55;;;;;;;22.57;57.92;101399.13;20634722;28;20092;-77
2022/10/06 00:36:51;;;;;;;6.15;4.15;;;;;;;22.57;57.80;101397.34;20631152;28;20489;-78
2022/10/06 00:46:52;;;;;;;4.28;3.72;;;;;;;22.55;57.85;101396.59;20638402;28;20042;-78
2022/10/06 00:56:53;;;;;;;4.65;3.58;;;;;;;22.53;57.75;101398.50;20636790;28;20115;-77
2022/10/06 01:06:56;;;;;;;5.00;3.50;;;;;;;22.53;58.11;101399.34;20629432;28;20046;-77
2022/10/06 01:17:04;;;;;;;4.30;3.60;;;;;;;22.49;58.13;101395.22;20627276;28;20037;-78
2022/10/06 01:27:09;;;;;;;4.65;3.75;;;;;;;22.48;58.21;101401.44;20626925;28;20112;-77
2022/10/06 01:37:09;;;;;;;4.93;3.70;;;;;;;22.46;58.11;101387.53;20627041;28;20058;-77
2022/10/06 01:47:09;;;;;;;7.53;3.97;;;;;;;22.46;58.02;101398.06;20629173;28;20046;-77
2022/10/06 01:57:10;;;;;;;5.22;3.40;;;;;;;22.43;57.90;101416.75;20641122;28;20038;-77
2022/10/06 02:07:10;;;;;;;5.00;3.57;;;;;;;22.44;57.88;101409.69;20641223;28;20808;-77
2022/10/06 02:17:11;;;;;;;3.85;3.30;;;;;;;22.41;57.81;101415.16;20651770;28;20290;-78
2022/10/06 02:27:12;;;;;;;4.13;3.20;;;;;;;22.43;57.95;101419.38;20651313;28;20042;-77
2022/10/06 02:37:14;;;;;;;4.93;3.60;;;;;;;22.38;57.97;101424.13;20647254;28;20862;-77
2022/10/06 02:47:15;;;;;;;;;;;;;;;22.44;57.66;101425.53;20650294;28;20754;-77
2022/10/06 02:57:18;;;;;;;7.72;3.85;;;;;;;22.36;57.89;101415.44;20640409;28;20056;-77
2022/10/06 03:07:19;;;;;;;4.95;3.50;;;;;;;22.37;57.84;101414.47;20631632;28;20491;-77
2022/10/06 03:17:20;;;;;;;3.67;3.17;;;;;;;22.35;57.67;101409.31;20636026;28;20034;-78
2022/10/06 03:27:21;;;;;;;4.70;3.22;;;;;;;22.34;57.74;101410.25;20637204;28;20042;-77
2022/10/06 03:37:21;;;;;;;4.22;3.35;;;;;;;22.31;57.81;101413.09;20636676;28;20057;-75
2022/10/06 03:47:22;;;;;;;5.55;3.17;;;;;;;22.30;57.44;101415.84;20646092;28;20046;-76
2022/10/06 03:57:22;;;;;;;4.20;3.25;;;;;;;22.30;57.01;101418.47;20643379;28;20218;-78
2022/10/06 04:07:22;;;;;;;6.55;3.45;;;;;;;22.31;57.74;101423.63;20634314;28;20054;-75
2022/10/06 04:17:23;;;;;;;5.95;3.13;;;;;;;22.40;59.29;101438.06;20650439;28;20049;-75
2022/10/06 04:27:26;;;;;;;8.30;3.53;;;;;;;22.46;59.78;101435.03;20630467;28;20042;-76
2022/10/06 04:37:27;;;;;;;4.57;3.38;;;;;;;22.48;59.79;101443.66;20631192;28;20045;-77
2022/10/06 04:47:28;;;;;;;7.95;3.50;;;;;;;22.37;58.01;101433.81;20648963;28;20081;-78
2022/10/06 04:57:28;;;;;;;6.03;3.35;;;;;;;22.43;58.39;101444.94;20638477;28;20501;-77
2022/10/06 05:07:28;;;;;;;17.67;4.75;;;;;;;22.41;58.71;101438.91;20644939;28;20045;-77
2022/10/06 05:17:29;;;;;;;35.60;8.30;;;;;;;22.26;56.72;101435.47;20638096;28;20042;-75
2022/10/06 05:27:29;;;;;;;35.08;8.60;;;;;;;22.28;56.55;101438.84;20616197;28;20035;-75
2022/10/06 05:37:30;;;;;;;31.65;7.10;;;;;;;22.31;56.96;101441.28;20614693;28;20038;-74
2022/10/06 05:47:30;;;;;;;28.40;7.50;;;;;;;22.25;56.38;101447.78;20619283;28;20044;-76
2022/10/06 05:57:30;;;;;;;31.13;7.15;;;;;;;22.21;55.20;101448.94;20629478;28;20035;-76
2022/10/06 06:07:31;;;;;;;20.58;6.32;;;;;;;22.28;56.93;101463.44;20632744;28;20081;-76
2022/10/06 06:17:32;;;;;;;18.52;6.13;;;;;;;22.32;57.47;101477.28;20647149;28;20089;-76
2022/10/06 06:27:32;;;;;;;17.00;5.68;;;;;;;22.33;57.52;101490.34;20650028;28;20044;-76
2022/10/06 06:37:33;;;;;;;15.48;5.70;;;;;;;22.32;57.34;101512.41;20644088;28;20038;-76
2022/10/06 06:47:34;;;;;;;12.05;5.32;;;;;;;22.34;57.67;101507.06;20673074;28;20045;-76
2022/10/06 06:57:34;;;;;;;9.80;4.95;;;;;;;22.36;57.68;101515.69;20661194;28;20503;-76
2022/10/06 07:07:35;;;;;;;12.90;5.47;;;;;;;22.36;57.35;101515.69;20666890;28;20125;-77
2022/10/06 07:27:54;;;;;;;8.93;4.55;;;;;;;22.38;57.48;101540.25;20659399;28;20124;-76
2022/10/06 07:37:56;;;;;;;12.57;5.28;;;;;;;22.42;57.24;101549.63;20660675;28;20056;-76
2022/10/06 07:47:58;;;;;;;8.63;4.47;;;;;;;22.43;57.26;101555.78;20652245;28;20043;-76
2022/10/06 07:57:58;;;;;;;8.55;4.85;;;;;;;22.43;57.43;101559.25;20655615;28;20045;-77
2022/10/06 08:07:59;;;;;;;10.77;4.57;;;;;;;22.45;57.15;101562.66;20648368;28;20041;-76
2022/10/06 08:18:00;;;;;;;8.95;4.13;;;;;;;22.45;57.18;101565.28;20645788;28;20030;-76
2022/10/06 08:28:01;;;;;;;8.43;4.60;;;;;;;22.49;57.19;101558.03;20640054;28;20580;-76
2022/10/06 08:38:01;;;;;;;6.75;4.25;;;;;;;22.51;57.12;101567.53;20637781;28;20034;-76
2022/10/06 08:48:08;;;;;;;6.07;4.15;;;;;;;22.55;57.35;101573.47;20629475;28;20066;-77
2022/10/06 08:58:39;;;;;;;7.03;4.15;;;;;;;22.57;57.19;101568.06;20618762;28;20922;-76
2022/10/06 09:09:30;;;;;;;4.68;3.45;;;;;;;22.62;57.19;101560.69;20617840;28;20046;-76
2022/10/06 09:19:47;;;;;;;5.87;4.03;;;;;;;22.70;56.61;101566.34;20609765;28;20192;-76
2022/10/06 09:29:49;;;;;;;17.48;9.25;;;;;;;22.30;49.88;101568.88;20627605;28;20065;-76
2022/10/06 09:39:51;;;;;;;14.13;6.57;;;;;;;22.54;53.39;101571.75;20632000;28;20030;-76
2022/10/06 09:50:19;;;;;;;9.43;5.87;;;;;;;22.63;54.06;101565.91;20627582;28;20060;-76
2022/10/06 10:00:31;;;;;;;11.07;5.30;;;;;;;22.74;54.99;101574.91;20656479;28;20050;-76
2022/10/06 10:10:34;;;;;;;7.53;4.25;;;;;;;22.81;55.15;101563.00;20644303;28;20045;-75
2022/10/06 10:20:38;;;;;;;6.90;4.60;;;;;;;22.87;55.32;101562.59;20664685;28;20046;-75
2022/10/06 10:30:50;;;;;;;6.80;4.82;;;;;;;22.91;55.26;101556.16;20666943;28;20055;-76
2022/10/06 10:40:56;;;;;;;6.85;4.88;;;;;;;22.98;55.48;101543.38;20661413;28;20062;-76
2022/10/06 10:51:04;;;;;;;8.38;6.00;;;;;;;23.10;55.54;101542.56;20666545;28;20417;-76
2022/10/06 11:01:08;;;;;;;8.43;5.88;;;;;;;23.20;55.58;101540.16;20663646;28;20031;-76
2022/10/06 11:11:46;;;;;;;8.60;6.82;;;;;;;23.25;55.71;101543.34;20660222;28;20481;-76
2022/10/06 11:22:02;;;;;;;8.77;6.68;;;;;;;23.27;55.73;101541.44;20666177;28;20042;-76
2022/10/06 11:32:11;;;;;;;42.33;27.70;;;;;;;23.32;56.40;101527.94;20656145;28;20078;-76
2022/10/06 11:42:33;;;;;;;40.90;24.08;;;;;;;23.36;56.33;101524.09;20655255;28;20056;-73
2022/10/06 11:52:42;;;;;;;35.90;22.57;;;;;;;23.42;56.45;101515.75;20648410;28;20057;-75
2022/10/06 12:02:44;;;;;;;29.67;18.77;;;;;;;23.36;55.94;101523.28;20650589;28;20046;-75
2022/10/06 12:12:52;;;;;;;28.35;16.20;;;;;;;23.32;54.74;101520.81;20647591;28;20045;-75
2022/10/06 12:23:16;;;;;;;23.70;15.40;;;;;;;23.34;54.85;101511.00;20636689;28;20045;-85
2022/10/06 12:33:19;;;;;;;20.20;12.10;;;;;;;23.27;52.91;101511.53;20661683;28;20513;-81
2022/10/06 12:43:22;;;;;;;20.85;11.15;;;;;;;23.28;52.90;101514.06;20666190;28;20033;-81
2022/10/06 12:53:35;;;;;;;14.90;10.00;;;;;;;23.29;52.72;101496.41;20662783;28;20063;-81
2022/10/06 13:03:37;;;;;;;17.92;9.73;;;;;;;23.31;52.51;101492.75;20669706;28;20393;-82
2022/10/06 13:13:45;;;;;;;12.37;8.60;;;;;;;23.34;51.54;101484.56;20652250;28;20044;-82
2022/10/06 13:23:46;;;;;;;15.52;8.35;;;;;;;23.38;51.67;101473.81;20660820;28;20240;-81
2022/10/06 13:33:57;;;;;;;12.60;7.30;;;;;;;23.45;51.83;101475.91;20656016;28;20077;-81
2022/10/06 13:44:21;;;;;;;12.57;7.00;;;;;;;23.45;51.62;101467.13;20660538;28;20525;-76
2022/10/06 13:54:59;;;;;;;13.20;6.85;;;;;;;23.50;51.10;101459.72;20636361;28;20056;-76
2022/10/06 14:05:30;;;;;;;8.30;5.75;;;;;;;23.56;51.19;101472.50;20643473;28;20042;-76
2022/10/06 14:15:43;;;;;;;8.47;5.13;;;;;;;23.55;50.85;101478.75;20663332;28;20046;-75
2022/10/06 14:25:48;;;;;;;8.35;5.38;;;;;;;23.47;51.21;101478.44;20653829;28;20639;-76
2022/10/06 14:35:48;;;;;;;12.13;5.45;;;;;;;23.43;50.70;101482.25;20661594;28;20132;-76
2022/10/06 14:45:48;;;;;;;10.18;5.38;;;;;;;23.38;49.19;101492.31;20659699;28;20033;-79
2022/10/06 14:55:49;;;;;;;12.35;5.40;;;;;;;23.34;50.56;101492.50;20669779;28;20054;-80
2022/10/06 15:16:08;;;;;;;13.02;5.22;;;;;;;23.30;50.19;101504.25;20678611;28;20046;-80
2022/10/06 15:36:35;;;;;;;13.60;5.43;;;;;;;23.25;50.24;101524.00;20680717;28;20559;-79
2022/10/06 15:46:38;;;;;;;9.73;5.65;;;;;;;23.15;50.96;101527.22;20659805;28;20034;-79
2022/10/06 15:56:39;;;;;;;10.63;4.82;;;;;;;23.13;51.55;101523.88;20655711;28;20126;-80
2022/10/06 16:06:43;;;;;;;17.05;4.95;;;;;;;23.13;52.25;101545.00;20655046;28;20050;-76
2022/10/06 16:16:46;;;;;;;18.35;5.10;;;;;;;23.10;52.87;101553.13;20643629;28;20081;-77
2022/10/06 16:26:46;;;;;;;11.55;5.03;;;;;;;23.13;53.73;101555.56;20653487;28;21280;-77
2022/10/06 16:36:47;;;;;;;14.98;4.78;;;;;;;23.17;54.06;101562.38;20640804;28;20375;-77
2022/10/06 16:46:47;;;;;;;7.90;4.75;;;;;;;23.21;54.33;101578.03;20651799;28;20542;-76
2022/10/06 16:56:53;;;;;;;11.40;4.75;;;;;;;23.21;54.80;101588.59;20642015;28;20043;-74
2022/10/06 17:06:55;;;;;;;20.50;7.30;;;;;;;23.21;56.03;101596.53;20646727;28;20069;-76
2022/10/06 17:16:57;;;;;;;11.07;6.07;;;;;;;23.24;55.95;101605.09;20645759;28;20050;-75
2022/10/06 17:26:57;;;;;;;13.53;5.93;;;;;;;23.27;56.72;101609.31;20643678;28;20061;-75
2022/10/06 17:36:58;;;;;;;12.60;5.55;;;;;;;23.28;57.93;101600.44;20644056;28;20054;-74
2022/10/06 17:46:59;;;;;;;20.17;5.20;;;;;;;23.33;58.44;101607.09;20631616;28;20045;-75
2022/10/06 17:57:00;;;;;;;7.65;4.85;;;;;;;23.30;58.14;101606.47;20641702;28;20081;-75
2022/10/06 18:07:02;;;;;;;9.50;4.90;;;;;;;23.29;58.11;101592.41;20645370;28;20489;-75
2022/10/06 18:17:02;;;;;;;7.07;4.60;;;;;;;23.29;58.35;101604.75;20648205;28;20049;-76
2022/10/06 18:27:05;;;;;;;10.25;4.40;;;;;;;23.30;58.21;101609.97;20631092;28;20042;-74
2022/10/06 18:37:06;;;;;;;10.65;5.20;;;;;;;23.28;57.79;101613.66;20642395;28;20038;-75
2022/10/06 18:57:25;;;;;;;10.32;5.22;;;;;;;23.24;58.13;101628.88;20650645;28;20065;-76
2022/10/06 19:07:29;;;;;;;10.55;5.53;;;;;;;23.23;57.69;101640.38;20660393;28;20061;-75
2022/10/06 19:17:29;;;;;;;8.07;4.80;;;;;;;23.15;57.55;101627.63;20660345;28;20045;-77
2022/10/06 19:27:32;;;;;;;10.93;5.72;;;;;;;23.17;57.78;101628.41;20660451;28;20505;-77
2022/10/06 19:37:32;;;;;;;11.30;5.30;;;;;;;23.12;57.28;101643.72;20685334;28;20050;-77
2022/10/06 19:47:33;;;;;;;12.57;5.70;;;;;;;23.09;57.30;101641.25;20679335;28;20064;-76
2022/10/06 19:57:33;;;;;;;11.43;5.30;;;;;;;23.11;57.07;101662.31;20681329;28;20030;-76
2022/10/06 20:07:33;;;;;;;10.15;5.63;;;;;;;23.10;57.21;101660.63;20669028;28;20046;-76
2022/10/06 20:17:34;;;;;;;9.30;5.55;;;;;;;23.07;56.95;101668.72;20684536;28;20524;-76
2022/10/06 20:27:34;;;;;;;8.17;5.53;;;;;;;23.08;56.98;101670.41;20662612;28;20077;-76
2022/10/06 20:37:37;;;;;;;11.25;5.30;;;;;;;23.07;56.80;101677.50;20654489;28;20330;-75
2022/10/06 20:47:37;;;;;;;6.72;5.25;;;;;;;23.05;56.82;101684.69;20665531;28;20212;-76
2022/10/06 20:57:37;;;;;;;7.65;5.45;;;;;;;23.02;56.71;101687.50;20664132;28;20132;-76
2022/10/06 21:07:39;;;;;;;7.03;5.25;;;;;;;23.05;56.68;101687.31;20667082;28;20038;-76
2022/10/06 21:17:40;;;;;;;7.80;5.13;;;;;;;23.05;57.02;101683.84;20659447;28;20046;-76
2022/10/06 21:27:41;;;;;;;8.38;5.85;;;;;;;23.01;57.29;101678.75;20663997;28;20049;-76
2022/10/06 21:37:41;;;;;;;10.48;5.75;;;;;;;23.01;57.01;101684.03;20663851;28;20038;-76
2022/10/06 21:47:41;;;;;;;6.55;5.47;;;;;;;23.00;57.09;101684.13;20662847;28;20065;-76
2022/10/06 21:57:42;;;;;;;6.63;5.40;;;;;;;22.97;57.10;101674.63;20655393;28;20104;-76
2022/10/06 22:07:43;;;;;;;10.07;5.75;;;;;;;22.96;57.31;101693.19;20665655;28;20038;-76
2022/10/06 22:17:45;;;;;;;11.63;5.70;;;;;;;22.93;57.22;101691.59;20674400;28;20046;-75
2022/10/06 22:27:45;;;;;;;7.00;5.20;;;;;;;22.92;57.13;101692.53;20677901;28;20405;-76
2022/10/06 22:37:47;;;;;;;7.30;5.32;;;;;;;22.93;56.93;101685.47;20668574;28;20034;-76
2022/10/06 22:47:48;;;;;;;6.93;5.00;;;;;;;22.91;57.06;101672.38;20665452;28;20042;-75
2022/10/06 22:57:48;;;;;;;8.02;5.03;;;;;;;22.88;56.93;101677.84;20671784;28;20069;-75
2022/10/06 23:07:50;;;;;;;5.70;4.80;;;;;;;22.87;56.91;101678.78;20668137;28;20046;-76
2022/10/06 23:17:51;;;;;;;9.00;5.40;;;;;;;22.86;56.95;101659.47;20671295;28;20061;-76
2022/10/06 23:27:51;;;;;;;7.03;5.07;;;;;;;22.86;56.98;101654.19;20673991;28;20132;-76
2022/10/06 23:37:51;;;;;;;5.95;4.97;;;;;;;22.83;56.98;101666.75;20672612;28;21020;-76
2022/10/06 23:47:52;;;;;;;7.32;4.97;;;;;;;22.81;57.14;101658.06;20671676;28;20398;-76
2022/10/06 23:57:52;;;;;;;7.15;5.10;;;;;;;22.75;57.12;101667.22;20661080;28;20350;-76
